sensor_id;sensor_type;location;lat;lon;timestamp;P1;durP1;ratioP1;P2;durP2;ratioP2
26620;SDS011;14253;44.840;10.444;2022-09-12T00:01:19;6.53;;;3.08;;
26620;SDS011;14253;44.840;10.444;2022-09-12T00:03:50;6.07;;;3.35;;
26620;SDS011;14253;44.840;10.444;2022-09-12T00:06:19;7.13;;;3.67;;
26620;SDS011;14253;44.840;10.444;2022-09-12T00:08:47;4.72;;;3.08;;
26620;SDS011;14253;44.840;10.444;2022-09-12T00:11:13;4.13;;;2.85;;
26620;SDS011;14253;44.840;10.444;2022-09-12T00:13:39;5.78;;;3.67;;
26620;SDS011;14253;44.840;10.444;2022-09-12T00:16:06;5.28;;;2.78;;
26620;SDS011;14253;44.840;10.444;2022-09-12T00:18:37;6.70;;;3.08;;
26620;SDS011;14253;44.840;10.444;2022-09-12T00:21:03;5.63;;;2.90;;
26620;SDS011;14253;44.840;10.444;2022-09-12T00:23:30;5.93;;;3.40;;
26620;SDS011;14253;44.840;10.444;2022-09-12T00:25:57;7.20;;;3.03;;
26620;SDS011;14253;44.840;10.444;2022-09-12T00:28:23;8.73;;;3.60;;
26620;SDS011;14253;44.840;10.444;2022-09-12T00:30:49;6.35;;;3.10;;
26620;SDS011;14253;44.840;10.444;2022-09-12T00:33:16;5.03;;;2.80;;
26620;SDS011;14253;44.840;10.444;2022-09-12T00:35:43;5.85;;;3.28;;
26620;SDS011;14253;44.840;10.444;2022-09-12T00:38:14;5.35;;;2.67;;
26620;SDS011;14253;44.840;10.444;2022-09-12T00:40:41;3.40;;;3.10;;
26620;SDS011;14253;44.840;10.444;2022-09-12T00:43:12;5.07;;;3.75;;
26620;SDS011;14253;44.840;10.444;2022-09-12T00:45:40;4.93;;;3.35;;
26620;SDS011;14253;44.840;10.444;2022-09-12T00:48:13;6.68;;;3.30;;
26620;SDS011;14253;44.840;10.444;2022-09-12T00:50:48;9.75;;;3.42;;
26620;SDS011;14253;44.840;10.444;2022-09-12T00:53:14;5.78;;;3.50;;
26620;SDS011;14253;44.840;10.444;2022-09-12T00:55:41;4.70;;;3.78;;
26620;SDS011;14253;44.840;10.444;2022-09-12T00:58:21;7.80;;;4.38;;
26620;SDS011;14253;44.840;10.444;2022-09-12T01:00:50;6.97;;;3.70;;
26620;SDS011;14253;44.840;10.444;2022-09-12T01:03:17;9.18;;;3.60;;
26620;SDS011;14253;44.840;10.444;2022-09-12T01:06:27;6.03;;;3.72;;
26620;SDS011;14253;44.840;10.444;2022-09-12T01:08:39;5.07;;;3.85;;
26620;SDS011;14253;44.840;10.444;2022-09-12T01:11:09;4.93;;;3.38;;
26620;SDS011;14253;44.840;10.444;2022-09-12T01:13:37;7.50;;;4.10;;
26620;SDS011;14253;44.840;10.444;2022-09-12T01:16:03;6.63;;;4.45;;
26620;SDS011;14253;44.840;10.444;2022-09-12T01:18:33;4.60;;;3.88;;
26620;SDS011;14253;44.840;10.444;2022-09-12T01:33:18;5.75;;;3.90;;
26620;SDS011;14253;44.840;10.444;2022-09-12T01:35:56;8.10;;;3.55;;
26620;SDS011;14253;44.840;10.444;2022-09-12T01:38:47;5.10;;;3.55;;
26620;SDS011;14253;44.840;10.444;2022-09-12T01:41:25;8.77;;;4.03;;
26620;SDS011;14253;44.840;10.444;2022-09-12T01:46:30;9.80;;;4.70;;
26620;SDS011;14253;44.840;10.444;2022-09-12T01:49:07;6.68;;;5.03;;
26620;SDS011;14253;44.840;10.444;2022-09-12T01:51:49;5.97;;;4.50;;
26620;SDS011;14253;44.840;10.444;2022-09-12T01:54:32;9.13;;;4.40;;
26620;SDS011;14253;44.840;10.444;2022-09-12T01:57:09;6.07;;;3.90;;
26620;SDS011;14253;44.840;10.444;2022-09-12T01:59:40;6.20;;;4.10;;
26620;SDS011;14253;44.840;10.444;2022-09-12T02:02:21;8.48;;;3.83;;
26620;SDS011;14253;44.840;10.444;2022-09-12T02:07:32;5.63;;;3.95;;
26620;SDS011;14253;44.840;10.444;2022-09-12T02:10:12;9.93;;;3.80;;
26620;SDS011;14253;44.840;10.444;2022-09-12T02:12:44;7.47;;;3.83;;
26620;SDS011;14253;44.840;10.444;2022-09-12T02:15:14;10.80;;;4.68;;
26620;SDS011;14253;44.840;10.444;2022-09-12T02:17:43;11.85;;;4.63;;
26620;SDS011;14253;44.840;10.444;2022-09-12T02:22:43;9.52;;;5.45;;
26620;SDS011;14253;44.840;10.444;2022-09-12T02:25:12;9.48;;;5.30;;
26620;SDS011;14253;44.840;10.444;2022-09-12T02:27:49;6.97;;;4.90;;
26620;SDS011;14253;44.840;10.444;2022-09-12T02:30:22;8.57;;;4.75;;
26620;SDS011;14253;44.840;10.444;2022-09-12T02:32:57;6.03;;;4.90;;
26620;SDS011;14253;44.840;10.444;2022-09-12T02:38:27;8.25;;;4.45;;
26620;SDS011;14253;44.840;10.444;2022-09-12T02:41:15;10.43;;;4.80;;
26620;SDS011;14253;44.840;10.444;2022-09-12T02:43:55;7.32;;;4.57;;
26620;SDS011;14253;44.840;10.444;2022-09-12T02:46:24;7.50;;;4.70;;
26620;SDS011;14253;44.840;10.444;2022-09-12T02:48:57;8.48;;;4.95;;
26620;SDS011;14253;44.840;10.444;2022-09-12T02:51:24;6.22;;;4.43;;
26620;SDS011;14253;44.840;10.444;2022-09-12T02:53:50;5.60;;;4.25;;
26620;SDS011;14253;44.840;10.444;2022-09-12T02:56:22;7.47;;;4.97;;
26620;SDS011;14253;44.840;10.444;2022-09-12T02:58:51;6.65;;;4.97;;
26620;SDS011;14253;44.840;10.444;2022-09-12T03:01:25;7.60;;;4.90;;
26620;SDS011;14253;44.840;10.444;2022-09-12T03:21:08;11.50;;;6.03;;
26620;SDS011;14253;44.840;10.444;2022-09-12T03:26:29;12.68;;;6.82;;
26620;SDS011;14253;44.840;10.444;2022-09-12T03:29:02;10.35;;;7.22;;
26620;SDS011;14253;44.840;10.444;2022-09-12T03:31:31;13.20;;;7.97;;
26620;SDS011;14253;44.840;10.444;2022-09-12T03:34:00;9.90;;;7.75;;
26620;SDS011;14253;44.840;10.444;2022-09-12T03:36:27;10.50;;;7.50;;
26620;SDS011;14253;44.840;10.444;2022-09-12T03:38:54;18.00;;;9.55;;
26620;SDS011;14253;44.840;10.444;2022-09-12T03:41:21;11.68;;;9.25;;
26620;SDS011;14253;44.840;10.444;2022-09-12T03:43:47;13.32;;;8.93;;
26620;SDS011;14253;44.840;10.444;2022-09-12T03:46:13;9.90;;;8.43;;
26620;SDS011;14253;44.840;10.444;2022-09-12T03:48:39;12.13;;;8.77;;
26620;SDS011;14253;44.840;10.444;2022-09-12T03:51:07;11.48;;;8.20;;
26620;SDS011;14253;44.840;10.444;2022-09-12T03:53:34;14.57;;;8.73;;
26620;SDS011;14253;44.840;10.444;2022-09-12T03:56:04;12.75;;;8.60;;
26620;SDS011;14253;44.840;10.444;2022-09-12T03:58:34;13.32;;;8.45;;
26620;SDS011;14253;44.840;10.444;2022-09-12T04:01:14;16.77;;;8.27;;
26620;SDS011;14253;44.840;10.444;2022-09-12T04:03:42;14.00;;;9.10;;
26620;SDS011;14253;44.840;10.444;2022-09-12T04:06:11;14.02;;;8.77;;
26620;SDS011;14253;44.840;10.444;2022-09-12T04:08:39;13.68;;;9.52;;
26620;SDS011;14253;44.840;10.444;2022-09-12T04:11:10;16.30;;;9.30;;
26620;SDS011;14253;44.840;10.444;2022-09-12T04:13:38;13.13;;;9.27;;
26620;SDS011;14253;44.840;10.444;2022-09-12T04:16:05;11.90;;;9.27;;
26620;SDS011;14253;44.840;10.444;2022-09-12T04:18:31;11.07;;;9.75;;
26620;SDS011;14253;44.840;10.444;2022-09-12T04:20:58;14.05;;;9.98;;
26620;SDS011;14253;44.840;10.444;2022-09-12T04:23:32;13.63;;;10.13;;
26620;SDS011;14253;44.840;10.444;2022-09-12T04:25:59;14.35;;;10.43;;
26620;SDS011;14253;44.840;10.444;2022-09-12T04:28:26;13.38;;;9.90;;
26620;SDS011;14253;44.840;10.444;2022-09-12T04:30:53;14.57;;;10.20;;
26620;SDS011;14253;44.840;10.444;2022-09-12T04:33:20;13.38;;;10.43;;
26620;SDS011;14253;44.840;10.444;2022-09-12T04:35:46;13.48;;;11.00;;
26620;SDS011;14253;44.840;10.444;2022-09-12T04:38:12;17.52;;;11.77;;
26620;SDS011;14253;44.840;10.444;2022-09-12T04:40:39;14.10;;;10.55;;
26620;SDS011;14253;44.840;10.444;2022-09-12T04:43:05;14.57;;;11.60;;
26620;SDS011;14253;44.840;10.444;2022-09-12T04:45:31;11.65;;;10.45;;
26620;SDS011;14253;44.840;10.444;2022-09-12T04:47:57;13.68;;;12.05;;
26620;SDS011;14253;44.840;10.444;2022-09-12T04:50:24;17.83;;;13.13;;
26620;SDS011;14253;44.840;10.444;2022-09-12T04:52:50;17.20;;;13.55;;
26620;SDS011;14253;44.840;10.444;2022-09-12T04:55:17;13.75;;;12.25;;
26620;SDS011;14253;44.840;10.444;2022-09-12T04:57:44;16.17;;;12.88;;
26620;SDS011;14253;44.840;10.444;2022-09-12T05:00:10;15.32;;;13.55;;
26620;SDS011;14253;44.840;10.444;2022-09-12T05:02:37;18.30;;;14.10;;
26620;SDS011;14253;44.840;10.444;2022-09-12T05:05:04;20.70;;;13.70;;
26620;SDS011;14253;44.840;10.444;2022-09-12T05:07:30;20.15;;;14.23;;
26620;SDS011;14253;44.840;10.444;2022-09-12T05:09:56;19.27;;;14.77;;
26620;SDS011;14253;44.840;10.444;2022-09-12T05:12:22;17.85;;;15.10;;
26620;SDS011;14253;44.840;10.444;2022-09-12T05:14:48;20.63;;;16.33;;
26620;SDS011;14253;44.840;10.444;2022-09-12T05:17:14;17.95;;;15.77;;
26620;SDS011;14253;44.840;10.444;2022-09-12T05:19:40;21.90;;;17.15;;
26620;SDS011;14253;44.840;10.444;2022-09-12T05:22:06;24.70;;;19.65;;
26620;SDS011;14253;44.840;10.444;2022-09-12T05:24:32;25.25;;;18.13;;
26620;SDS011;14253;44.840;10.444;2022-09-12T05:26:59;26.50;;;18.85;;
26620;SDS011;14253;44.840;10.444;2022-09-12T05:29:27;25.13;;;20.02;;
26620;SDS011;14253;44.840;10.444;2022-09-12T05:31:53;24.02;;;19.60;;
26620;SDS011;14253;44.840;10.444;2022-09-12T05:34:19;22.55;;;18.27;;
26620;SDS011;14253;44.840;10.444;2022-09-12T05:36:45;25.67;;;18.73;;
26620;SDS011;14253;44.840;10.444;2022-09-12T05:39:12;25.13;;;20.55;;
26620;SDS011;14253;44.840;10.444;2022-09-12T05:41:37;22.85;;;17.60;;
26620;SDS011;14253;44.840;10.444;2022-09-12T05:44:04;23.60;;;18.48;;
26620;SDS011;14253;44.840;10.444;2022-09-12T05:46:34;21.92;;;17.48;;
26620;SDS011;14253;44.840;10.444;2022-09-12T05:49:03;18.50;;;15.82;;
26620;SDS011;14253;44.840;10.444;2022-09-12T05:51:31;21.27;;;17.35;;
26620;SDS011;14253;44.840;10.444;2022-09-12T05:54:00;21.13;;;15.10;;
26620;SDS011;14253;44.840;10.444;2022-09-12T05:56:28;20.65;;;16.33;;
26620;SDS011;14253;44.840;10.444;2022-09-12T05:58:57;19.10;;;15.00;;
26620;SDS011;14253;44.840;10.444;2022-09-12T06:01:24;18.08;;;12.93;;
26620;SDS011;14253;44.840;10.444;2022-09-12T06:03:52;13.70;;;11.40;;
26620;SDS011;14253;44.840;10.444;2022-09-12T06:06:21;18.10;;;13.35;;
26620;SDS011;14253;44.840;10.444;2022-09-12T06:08:50;14.02;;;11.10;;
26620;SDS011;14253;44.840;10.444;2022-09-12T06:11:18;17.25;;;12.80;;
26620;SDS011;14253;44.840;10.444;2022-09-12T06:13:50;17.58;;;14.05;;
26620;SDS011;14253;44.840;10.444;2022-09-12T06:16:25;17.60;;;14.35;;
26620;SDS011;14253;44.840;10.444;2022-09-12T06:19:10;15.35;;;13.55;;
26620;SDS011;14253;44.840;10.444;2022-09-12T06:22:01;17.38;;;12.02;;
26620;SDS011;14253;44.840;10.444;2022-09-12T06:24:40;14.10;;;10.77;;
26620;SDS011;14253;44.840;10.444;2022-09-12T06:27:12;14.18;;;9.80;;
26620;SDS011;14253;44.840;10.444;2022-09-12T06:29:51;14.98;;;11.20;;
26620;SDS011;14253;44.840;10.444;2022-09-12T06:32:17;17.77;;;11.77;;
26620;SDS011;14253;44.840;10.444;2022-09-12T06:34:43;16.08;;;10.85;;
26620;SDS011;14253;44.840;10.444;2022-09-12T06:37:11;18.83;;;11.23;;
26620;SDS011;14253;44.840;10.444;2022-09-12T06:39:37;13.43;;;9.32;;
26620;SDS011;14253;44.840;10.444;2022-09-12T06:42:03;12.05;;;8.70;;
26620;SDS011;14253;44.840;10.444;2022-09-12T06:44:33;13.55;;;8.63;;
26620;SDS011;14253;44.840;10.444;2022-09-12T06:46:59;14.23;;;9.82;;
26620;SDS011;14253;44.840;10.444;2022-09-12T06:49:25;13.23;;;9.25;;
26620;SDS011;14253;44.840;10.444;2022-09-12T06:51:51;10.82;;;8.38;;
26620;SDS011;14253;44.840;10.444;2022-09-12T06:54:17;13.82;;;8.13;;
26620;SDS011;14253;44.840;10.444;2022-09-12T06:56:44;9.40;;;8.23;;
26620;SDS011;14253;44.840;10.444;2022-09-12T06:59:10;8.98;;;6.43;;
26620;SDS011;14253;44.840;10.444;2022-09-12T07:01:36;10.88;;;6.80;;
26620;SDS011;14253;44.840;10.444;2022-09-12T07:04:05;12.82;;;6.75;;
26620;SDS011;14253;44.840;10.444;2022-09-12T07:06:35;7.68;;;6.07;;
26620;SDS011;14253;44.840;10.444;2022-09-12T07:09:05;10.43;;;7.55;;
26620;SDS011;14253;44.840;10.444;2022-09-12T07:11:34;14.45;;;7.07;;
26620;SDS011;14253;44.840;10.444;2022-09-12T07:14:03;14.05;;;6.80;;
26620;SDS011;14253;44.840;10.444;2022-09-12T07:16:30;11.10;;;5.30;;
26620;SDS011;14253;44.840;10.444;2022-09-12T07:18:58;8.95;;;6.15;;
26620;SDS011;14253;44.840;10.444;2022-09-12T07:21:25;8.45;;;6.05;;
26620;SDS011;14253;44.840;10.444;2022-09-12T07:23:52;9.27;;;5.65;;
26620;SDS011;14253;44.840;10.444;2022-09-12T07:26:22;6.85;;;5.57;;
26620;SDS011;14253;44.840;10.444;2022-09-12T07:28:49;7.50;;;5.88;;
26620;SDS011;14253;44.840;10.444;2022-09-12T07:31:18;9.35;;;5.65;;
26620;SDS011;14253;44.840;10.444;2022-09-12T07:33:45;10.30;;;5.63;;
26620;SDS011;14253;44.840;10.444;2022-09-12T07:36:12;9.48;;;5.97;;
26620;SDS011;14253;44.840;10.444;2022-09-12T07:38:40;11.32;;;6.38;;
26620;SDS011;14253;44.840;10.444;2022-09-12T07:41:13;10.15;;;6.05;;
26620;SDS011;14253;44.840;10.444;2022-09-12T07:43:51;15.13;;;5.82;;
26620;SDS011;14253;44.840;10.444;2022-09-12T07:46:17;10.32;;;5.80;;
26620;SDS011;14253;44.840;10.444;2022-09-12T07:48:43;9.93;;;5.85;;
26620;SDS011;14253;44.840;10.444;2022-09-12T07:51:14;10.17;;;5.67;;
26620;SDS011;14253;44.840;10.444;2022-09-12T07:53:40;12.48;;;6.22;;
26620;SDS011;14253;44.840;10.444;2022-09-12T07:56:08;8.52;;;6.55;;
26620;SDS011;14253;44.840;10.444;2022-09-12T07:58:35;12.27;;;6.15;;
26620;SDS011;14253;44.840;10.444;2022-09-12T08:01:03;14.32;;;6.78;;
26620;SDS011;14253;44.840;10.444;2022-09-12T08:03:31;12.25;;;5.18;;
26620;SDS011;14253;44.840;10.444;2022-09-12T08:08:36;10.73;;;6.45;;
26620;SDS011;14253;44.840;10.444;2022-09-12T08:11:07;9.80;;;6.43;;
26620;SDS011;14253;44.840;10.444;2022-09-12T08:13:35;13.18;;;7.50;;
26620;SDS011;14253;44.840;10.444;2022-09-12T08:16:03;13.90;;;7.70;;
26620;SDS011;14253;44.840;10.444;2022-09-12T08:18:31;13.52;;;7.72;;
26620;SDS011;14253;44.840;10.444;2022-09-12T08:21:01;11.52;;;7.80;;
26620;SDS011;14253;44.840;10.444;2022-09-12T08:23:29;11.48;;;7.50;;
26620;SDS011;14253;44.840;10.444;2022-09-12T08:25:56;17.17;;;8.43;;
26620;SDS011;14253;44.840;10.444;2022-09-12T08:28:29;14.93;;;8.13;;
26620;SDS011;14253;44.840;10.444;2022-09-12T08:31:06;9.55;;;7.40;;
26620;SDS011;14253;44.840;10.444;2022-09-12T08:33:34;8.10;;;6.53;;
26620;SDS011;14253;44.840;10.444;2022-09-12T08:36:11;12.10;;;7.22;;
26620;SDS011;14253;44.840;10.444;2022-09-12T08:38:40;9.18;;;6.82;;
26620;SDS011;14253;44.840;10.444;2022-09-12T08:46:57;11.20;;;5.05;;
26620;SDS011;14253;44.840;10.444;2022-09-12T08:55:02;11.40;;;6.18;;
26620;SDS011;14253;44.840;10.444;2022-09-12T08:57:31;8.10;;;4.05;;
26620;SDS011;14253;44.840;10.444;2022-09-12T08:59:57;7.35;;;4.95;;
26620;SDS011;14253;44.840;10.444;2022-09-12T09:05:12;9.80;;;5.70;;
26620;SDS011;14253;44.840;10.444;2022-09-12T09:16:45;12.60;;;5.88;;
26620;SDS011;14253;44.840;10.444;2022-09-12T09:19:17;13.90;;;7.20;;
26620;SDS011;14253;44.840;10.444;2022-09-12T09:24:25;12.05;;;6.57;;
26620;SDS011;14253;44.840;10.444;2022-09-12T09:27:09;14.55;;;7.00;;
26620;SDS011;14253;44.840;10.444;2022-09-12T09:29:50;17.60;;;7.50;;
26620;SDS011;14253;44.840;10.444;2022-09-12T09:32:23;11.65;;;6.30;;
26620;SDS011;14253;44.840;10.444;2022-09-12T09:34:53;10.23;;;7.00;;
26620;SDS011;14253;44.840;10.444;2022-09-12T09:37:34;7.95;;;6.72;;
26620;SDS011;14253;44.840;10.444;2022-09-12T09:40:16;8.63;;;5.85;;
26620;SDS011;14253;44.840;10.444;2022-09-12T09:43:05;13.35;;;6.00;;
26620;SDS011;14253;44.840;10.444;2022-09-12T09:45:34;14.18;;;5.95;;
26620;SDS011;14253;44.840;10.444;2022-09-12T09:50:45;13.40;;;6.43;;
26620;SDS011;14253;44.840;10.444;2022-09-12T09:53:57;9.95;;;6.88;;
26620;SDS011;14253;44.840;10.444;2022-09-12T09:59:08;13.10;;;7.10;;
26620;SDS011;14253;44.840;10.444;2022-09-12T10:01:36;9.98;;;6.07;;
26620;SDS011;14253;44.840;10.444;2022-09-12T10:04:08;9.68;;;6.05;;
26620;SDS011;14253;44.840;10.444;2022-09-12T10:06:56;7.55;;;6.15;;
26620;SDS011;14253;44.840;10.444;2022-09-12T10:09:24;9.55;;;5.50;;
26620;SDS011;14253;44.840;10.444;2022-09-12T10:11:57;9.30;;;6.18;;
26620;SDS011;14253;44.840;10.444;2022-09-12T10:14:27;10.02;;;5.20;;
26620;SDS011;14253;44.840;10.444;2022-09-12T10:17:02;11.20;;;4.22;;
26620;SDS011;14253;44.840;10.444;2022-09-12T10:19:49;8.07;;;3.65;;
26620;SDS011;14253;44.840;10.444;2022-09-12T10:22:17;14.15;;;5.93;;
26620;SDS011;14253;44.840;10.444;2022-09-12T10:24:47;7.30;;;4.85;;
26620;SDS011;14253;44.840;10.444;2022-09-12T10:27:22;6.47;;;4.07;;
26620;SDS011;14253;44.840;10.444;2022-09-12T10:30:06;7.50;;;4.80;;
26620;SDS011;14253;44.840;10.444;2022-09-12T10:32:45;8.18;;;4.63;;
26620;SDS011;14253;44.840;10.444;2022-09-12T10:38:00;12.40;;;5.18;;
26620;SDS011;14253;44.840;10.444;2022-09-12T10:40:33;9.82;;;3.83;;
26620;SDS011;14253;44.840;10.444;2022-09-12T10:43:14;7.65;;;4.50;;
26620;SDS011;14253;44.840;10.444;2022-09-12T10:45:43;8.75;;;4.85;;
26620;SDS011;14253;44.840;10.444;2022-09-12T10:50:53;6.93;;;3.83;;
26620;SDS011;14253;44.840;10.444;2022-09-12T10:56:08;5.95;;;3.05;;
26620;SDS011;14253;44.840;10.444;2022-09-12T10:58:53;7.88;;;3.50;;
26620;SDS011;14253;44.840;10.444;2022-09-12T11:04:19;5.75;;;3.10;;
26620;SDS011;14253;44.840;10.444;2022-09-12T11:13:02;7.68;;;3.28;;
26620;SDS011;14253;44.840;10.444;2022-09-12T11:35:05;7.18;;;2.03;;
26620;SDS011;14253;44.840;10.444;2022-09-12T11:45:48;8.50;;;1.90;;
26620;SDS011;14253;44.840;10.444;2022-09-12T11:48:18;2.75;;;1.70;;
26620;SDS011;14253;44.840;10.444;2022-09-12T11:51:05;5.95;;;1.95;;
26620;SDS011;14253;44.840;10.444;2022-09-12T11:53:40;7.10;;;1.70;;
26620;SDS011;14253;44.840;10.444;2022-09-12T11:56:10;3.17;;;1.73;;
26620;SDS011;14253;44.840;10.444;2022-09-12T11:58:41;3.97;;;1.90;;
26620;SDS011;14253;44.840;10.444;2022-09-12T12:01:13;2.97;;;1.90;;
26620;SDS011;14253;44.840;10.444;2022-09-12T12:03:45;4.35;;;1.58;;
26620;SDS011;14253;44.840;10.444;2022-09-12T12:06:16;6.30;;;1.67;;
26620;SDS011;14253;44.840;10.444;2022-09-12T12:08:55;5.05;;;1.60;;
26620;SDS011;14253;44.840;10.444;2022-09-12T12:11:28;2.53;;;1.67;;
26620;SDS011;14253;44.840;10.444;2022-09-12T12:14:00;4.85;;;1.70;;
26620;SDS011;14253;44.840;10.444;2022-09-12T12:16:38;3.67;;;1.20;;
26620;SDS011;14253;44.840;10.444;2022-09-12T12:19:30;2.13;;;1.23;;
26620;SDS011;14253;44.840;10.444;2022-09-12T12:22:13;4.70;;;1.33;;
26620;SDS011;14253;44.840;10.444;2022-09-12T12:24:56;3.30;;;1.03;;
26620;SDS011;14253;44.840;10.444;2022-09-12T12:35:44;3.08;;;1.17;;
26620;SDS011;14253;44.840;10.444;2022-09-12T12:43:44;9.27;;;1.92;;
26620;SDS011;14253;44.840;10.444;2022-09-12T12:46:24;3.15;;;1.13;;
26620;SDS011;14253;44.840;10.444;2022-09-12T12:57:17;4.35;;;1.10;;
26620;SDS011;14253;44.840;10.444;2022-09-12T13:02:37;3.38;;;1.38;;
26620;SDS011;14253;44.840;10.444;2022-09-12T13:05:18;3.33;;;1.40;;
26620;SDS011;14253;44.840;10.444;2022-09-12T13:07:46;4.93;;;1.05;;
26620;SDS011;14253;44.840;10.444;2022-09-12T13:10:21;3.88;;;1.30;;
26620;SDS011;14253;44.840;10.444;2022-09-12T13:12:49;7.15;;;1.30;;
26620;SDS011;14253;44.840;10.444;2022-09-12T13:15:45;3.15;;;1.52;;
26620;SDS011;14253;44.840;10.444;2022-09-12T13:18:17;5.50;;;1.13;;
26620;SDS011;14253;44.840;10.444;2022-09-12T13:21:01;6.40;;;1.30;;
26620;SDS011;14253;44.840;10.444;2022-09-12T13:23:39;2.80;;;1.33;;
26620;SDS011;14253;44.840;10.444;2022-09-12T13:26:10;4.85;;;1.25;;
26620;SDS011;14253;44.840;10.444;2022-09-12T13:29:07;2.80;;;1.20;;
26620;SDS011;14253;44.840;10.444;2022-09-12T13:31:34;2.67;;;0.88;;
26620;SDS011;14253;44.840;10.444;2022-09-12T13:34:00;4.53;;;1.40;;
26620;SDS011;14253;44.840;10.444;2022-09-12T13:39:16;3.90;;;1.20;;
26620;SDS011;14253;44.840;10.444;2022-09-12T13:47:20;5.30;;;1.20;;
26620;SDS011;14253;44.840;10.444;2022-09-12T13:50:13;2.05;;;0.82;;
26620;SDS011;14253;44.840;10.444;2022-09-12T13:52:51;1.83;;;0.90;;
26620;SDS011;14253;44.840;10.444;2022-09-12T13:58:21;2.05;;;1.00;;
26620;SDS011;14253;44.840;10.444;2022-09-12T14:01:03;3.22;;;0.88;;
26620;SDS011;14253;44.840;10.444;2022-09-12T14:03:33;4.50;;;0.90;;
26620;SDS011;14253;44.840;10.444;2022-09-12T14:06:25;5.05;;;1.02;;
26620;SDS011;14253;44.840;10.444;2022-09-12T14:08:52;4.85;;;1.00;;
26620;SDS011;14253;44.840;10.444;2022-09-12T14:11:25;4.53;;;0.90;;
26620;SDS011;14253;44.840;10.444;2022-09-12T14:13:53;1.95;;;0.95;;
26620;SDS011;14253;44.840;10.444;2022-09-12T14:16:20;2.45;;;1.10;;
26620;SDS011;14253;44.840;10.444;2022-09-12T14:18:48;2.83;;;1.13;;
26620;SDS011;14253;44.840;10.444;2022-09-12T14:23:56;3.38;;;0.90;;
26620;SDS011;14253;44.840;10.444;2022-09-12T14:26:23;2.58;;;0.90;;
26620;SDS011;14253;44.840;10.444;2022-09-12T14:28:52;2.08;;;0.68;;
26620;SDS011;14253;44.840;10.444;2022-09-12T14:31:20;5.63;;;0.90;;
26620;SDS011;14253;44.840;10.444;2022-09-12T14:33:55;1.55;;;0.98;;
26620;SDS011;14253;44.840;10.444;2022-09-12T14:36:39;3.10;;;0.90;;
26620;SDS011;14253;44.840;10.444;2022-09-12T14:39:19;5.65;;;1.00;;
26620;SDS011;14253;44.840;10.444;2022-09-12T14:41:49;1.83;;;1.10;;
26620;SDS011;14253;44.840;10.444;2022-09-12T14:44:24;5.45;;;1.00;;
26620;SDS011;14253;44.840;10.444;2022-09-12T14:46:52;2.55;;;1.08;;
26620;SDS011;14253;44.840;10.444;2022-09-12T14:49:31;6.78;;;1.30;;
26620;SDS011;14253;44.840;10.444;2022-09-12T14:52:00;2.60;;;1.02;;
26620;SDS011;14253;44.840;10.444;2022-09-12T14:56:56;1.25;;;1.02;;
26620;SDS011;14253;44.840;10.444;2022-09-12T15:04:48;2.22;;;0.95;;
26620;SDS011;14253;44.840;10.444;2022-09-12T15:07:35;2.30;;;1.20;;
26620;SDS011;14253;44.840;10.444;2022-09-12T15:13:03;3.33;;;0.93;;
26620;SDS011;14253;44.840;10.444;2022-09-12T15:15:35;4.00;;;1.02;;
26620;SDS011;14253;44.840;10.444;2022-09-12T15:18:03;3.45;;;1.20;;
26620;SDS011;14253;44.840;10.444;2022-09-12T15:20:33;1.85;;;0.90;;
26620;SDS011;14253;44.840;10.444;2022-09-12T15:23:30;1.67;;;0.75;;
26620;SDS011;14253;44.840;10.444;2022-09-12T15:26:03;3.50;;;1.30;;
26620;SDS011;14253;44.840;10.444;2022-09-12T15:33:58;5.28;;;0.93;;
26620;SDS011;14253;44.840;10.444;2022-09-12T15:36:25;3.30;;;0.88;;
26620;SDS011;14253;44.840;10.444;2022-09-12T15:38:53;2.60;;;0.85;;
26620;SDS011;14253;44.840;10.444;2022-09-12T15:43:46;1.42;;;0.70;;
26620;SDS011;14253;44.840;10.444;2022-09-12T15:46:13;1.52;;;1.08;;
26620;SDS011;14253;44.840;10.444;2022-09-12T15:48:41;1.60;;;0.77;;
26620;SDS011;14253;44.840;10.444;2022-09-12T15:51:17;1.40;;;0.77;;
26620;SDS011;14253;44.840;10.444;2022-09-12T15:53:45;6.75;;;1.10;;
26620;SDS011;14253;44.840;10.444;2022-09-12T15:56:16;3.40;;;1.10;;
26620;SDS011;14253;44.840;10.444;2022-09-12T16:01:09;2.38;;;1.25;;
26620;SDS011;14253;44.840;10.444;2022-09-12T16:03:37;4.70;;;1.13;;
26620;SDS011;14253;44.840;10.444;2022-09-12T16:06:03;3.35;;;1.00;;
26620;SDS011;14253;44.840;10.444;2022-09-12T16:08:31;3.15;;;0.80;;
26620;SDS011;14253;44.840;10.444;2022-09-12T16:11:03;5.15;;;1.23;;
26620;SDS011;14253;44.840;10.444;2022-09-12T16:13:31;2.55;;;1.10;;
26620;SDS011;14253;44.840;10.444;2022-09-12T16:15:58;4.32;;;0.90;;
26620;SDS011;14253;44.840;10.444;2022-09-12T16:18:25;1.90;;;0.82;;
26620;SDS011;14253;44.840;10.444;2022-09-12T16:20:53;4.07;;;1.10;;
26620;SDS011;14253;44.840;10.444;2022-09-12T16:23:20;3.92;;;0.88;;
26620;SDS011;14253;44.840;10.444;2022-09-12T16:25:57;2.17;;;0.82;;
26620;SDS011;14253;44.840;10.444;2022-09-12T16:28:26;2.67;;;0.85;;
26620;SDS011;14253;44.840;10.444;2022-09-12T16:30:56;5.88;;;1.20;;
26620;SDS011;14253;44.840;10.444;2022-09-12T16:33:23;5.07;;;0.90;;
26620;SDS011;14253;44.840;10.444;2022-09-12T16:35:49;2.85;;;0.88;;
26620;SDS011;14253;44.840;10.444;2022-09-12T16:38:21;2.47;;;1.05;;
26620;SDS011;14253;44.840;10.444;2022-09-12T16:40:47;4.40;;;0.80;;
26620;SDS011;14253;44.840;10.444;2022-09-12T16:43:14;4.28;;;1.10;;
26620;SDS011;14253;44.840;10.444;2022-09-12T16:45:42;3.33;;;1.20;;
26620;SDS011;14253;44.840;10.444;2022-09-12T16:48:08;3.22;;;0.70;;
26620;SDS011;14253;44.840;10.444;2022-09-12T16:50:34;3.05;;;0.90;;
26620;SDS011;14253;44.840;10.444;2022-09-12T16:53:00;3.70;;;0.93;;
26620;SDS011;14253;44.840;10.444;2022-09-12T16:55:27;3.33;;;0.95;;
26620;SDS011;14253;44.840;10.444;2022-09-12T16:57:53;3.15;;;1.10;;
26620;SDS011;14253;44.840;10.444;2022-09-12T17:00:20;2.30;;;0.93;;
26620;SDS011;14253;44.840;10.444;2022-09-12T17:02:46;5.45;;;1.23;;
26620;SDS011;14253;44.840;10.444;2022-09-12T17:05:12;2.70;;;0.93;;
26620;SDS011;14253;44.840;10.444;2022-09-12T17:07:41;3.13;;;1.23;;
26620;SDS011;14253;44.840;10.444;2022-09-12T17:10:07;4.93;;;1.15;;
26620;SDS011;14253;44.840;10.444;2022-09-12T17:12:33;2.65;;;0.90;;
26620;SDS011;14253;44.840;10.444;2022-09-12T17:14:59;2.80;;;1.27;;
26620;SDS011;14253;44.840;10.444;2022-09-12T17:17:25;3.53;;;1.00;;
26620;SDS011;14253;44.840;10.444;2022-09-12T17:19:51;2.58;;;1.15;;
26620;SDS011;14253;44.840;10.444;2022-09-12T17:22:17;3.95;;;1.05;;
26620;SDS011;14253;44.840;10.444;2022-09-12T17:24:43;4.03;;;1.20;;
26620;SDS011;14253;44.840;10.444;2022-09-12T17:27:09;4.70;;;1.02;;
26620;SDS011;14253;44.840;10.444;2022-09-12T17:29:36;6.00;;;1.40;;
26620;SDS011;14253;44.840;10.444;2022-09-12T17:32:02;5.35;;;1.10;;
26620;SDS011;14253;44.840;10.444;2022-09-12T17:34:29;5.35;;;1.40;;
26620;SDS011;14253;44.840;10.444;2022-09-12T17:36:55;3.63;;;1.23;;
26620;SDS011;14253;44.840;10.444;2022-09-12T17:39:21;3.28;;;1.20;;
26620;SDS011;14253;44.840;10.444;2022-09-12T17:41:47;2.63;;;1.00;;
26620;SDS011;14253;44.840;10.444;2022-09-12T17:44:16;2.45;;;1.13;;
26620;SDS011;14253;44.840;10.444;2022-09-12T17:46:43;5.50;;;1.38;;
26620;SDS011;14253;44.840;10.444;2022-09-12T17:49:13;6.25;;;1.20;;
26620;SDS011;14253;44.840;10.444;2022-09-12T17:51:39;4.32;;;1.25;;